Time;durP1;ratioP1;P1;durP2;ratioP2;P2;SDS_P1;SDS_P2;PMS_P1;PMS_P2;Temp;Humidity;BMP_temperature;BMP_pressure;BME280_temperature;BME280_humidity;BME280_pressure;Samples;Min_cycle;Max_cycle;Signal;HPM_P1;HPM_P2
2022/09/18 00:07:07;;;;;;;1999.90;999.90;;;11.40;99.90;;;;;;6727589;87;20204;-78
2022/09/18 00:17:07;;;;;;;1999.90;999.90;;;11.50;99.90;;;;;;6704545;87;20297;-77
2022/09/18 00:27:08;;;;;;;1999.90;999.90;;;11.50;99.90;;;;;;6682363;88;20212;-78
2022/09/18 00:37:08;;;;;;;1999.90;999.90;;;11.50;99.90;;;;;;6686393;88;20211;-78
2022/09/18 00:47:09;;;;;;;1999.90;999.90;;;11.50;99.90;;;;;;6675610;88;20245;-77
2022/09/18 00:57:15;;;;;;;1999.90;999.90;;;11.50;99.90;;;;;;6681526;88;20518;-78
2022/09/18 01:07:44;;;;;;;1999.90;999.90;;;11.40;99.90;;;;;;6673695;88;20250;-78
2022/09/18 01:18:29;;;;;;;1999.90;999.90;;;11.40;99.90;;;;;;6685734;88;20253;-77
2022/09/18 01:28:37;;;;;;;1999.90;999.90;;;11.40;99.90;;;;;;6701268;87;20199;-78
2022/09/18 01:38:50;;;;;;;1999.90;999.90;;;11.40;99.90;;;;;;6701232;87;20295;-77
2022/09/18 01:49:02;;;;;;;1999.90;999.90;;;11.40;99.90;;;;;;6705097;87;20229;-77
2022/09/18 01:59:29;;;;;;;1999.90;999.90;;;11.40;99.90;;;;;;6721161;87;20716;-79
2022/09/18 02:09:30;;;;;;;1999.90;999.90;;;11.50;99.90;;;;;;6719030;87;20201;-78
2022/09/18 02:19:49;;;;;;;1999.90;999.90;;;11.60;99.90;;;;;;6737675;87;20239;-77
2022/09/18 02:29:52;;;;;;;1999.90;999.90;;;11.50;99.90;;;;;;6708628;87;20202;-78
2022/09/18 02:40:11;;;;;;;1999.90;999.90;;;11.50;99.90;;;;;;6718943;87;20199;-77
2022/09/18 02:50:38;;;;;;;1999.90;999.90;;;11.40;99.90;;;;;;6710052;87;20207;-77
2022/09/18 03:00:41;;;;;;;1999.90;999.90;;;11.30;99.90;;;;;;6716301;87;20310;-77
2022/09/18 03:10:42;;;;;;;1999.90;999.90;;;11.30;99.90;;;;;;6729584;87;20231;-78
2022/09/18 03:20:42;;;;;;;1999.90;999.90;;;11.30;99.90;;;;;;6717789;87;20203;-78
2022/09/18 03:30:44;;;;;;;1999.90;999.90;;;11.30;99.90;;;;;;6716133;87;20191;-78
2022/09/18 03:40:45;;;;;;;1999.90;999.90;;;11.20;99.90;;;;;;6735294;87;20304;-78
2022/09/18 03:50:49;;;;;;;1999.90;999.90;;;11.20;99.90;;;;;;6696724;87;20188;-78
2022/09/18 04:00:49;;;;;;;1999.90;999.90;;;11.10;99.90;;;;;;6729881;77;20225;-75
2022/09/18 04:10:50;;;;;;;1999.90;999.90;;;11.20;99.90;;;;;;6725127;88;20197;-75
2022/09/18 04:20:50;;;;;;;1999.90;999.90;;;11.10;99.90;;;;;;6731447;88;20320;-75
2022/09/18 04:30:51;;;;;;;1999.90;999.90;;;11.20;99.90;;;;;;6730980;88;20213;-74
2022/09/18 04:40:59;;;;;;;1999.90;999.90;;;11.10;99.90;;;;;;6731159;88;20713;-74
2022/09/18 04:50:59;;;;;;;1999.90;999.90;;;11.10;99.90;;;;;;6726883;88;20186;-76
2022/09/18 05:01:00;;;;;;;1999.90;999.90;;;11.00;99.90;;;;;;6738545;88;20217;-76
2022/09/18 05:11:01;;;;;;;1999.90;999.90;;;11.10;99.90;;;;;;6744097;87;20215;-76
2022/09/18 05:21:02;;;;;;;1999.90;999.90;;;11.10;99.90;;;;;;6744320;88;20701;-76
2022/09/18 05:31:03;;;;;;;1999.90;999.90;;;11.00;99.90;;;;;;6748350;88;20273;-76
2022/09/18 05:41:03;;;;;;;1999.90;999.90;;;11.10;99.90;;;;;;6746548;88;20911;-74
2022/09/18 05:51:04;;;;;;;1999.90;999.90;;;11.10;99.90;;;;;;6743205;88;20228;-76
2022/09/18 06:01:05;;;;;;;1999.90;999.90;;;11.10;99.90;;;;;;6735648;88;20226;-76
2022/09/18 06:11:05;;;;;;;1999.90;999.90;;;11.20;99.90;;;;;;6717569;88;20279;-75
2022/09/18 06:21:06;;;;;;;1999.90;999.90;;;11.20;99.90;;;;;;6725756;88;20350;-75
2022/09/18 06:31:07;;;;;;;1999.90;999.90;;;11.30;99.90;;;;;;6713063;88;20632;-76
2022/09/18 06:41:10;;;;;;;1999.90;999.90;;;11.20;99.90;;;;;;6712835;88;20212;-74
2022/09/18 06:51:10;;;;;;;1999.90;999.90;;;11.50;99.90;;;;;;6709968;88;20261;-77
2022/09/18 07:01:11;;;;;;;1999.90;999.90;;;11.60;99.90;;;;;;6710521;88;20197;-76
2022/09/18 07:11:12;;;;;;;1999.90;999.90;;;11.60;99.90;;;;;;6706787;88;20217;-76
2022/09/18 07:21:12;;;;;;;1999.90;999.90;;;11.60;99.90;;;;;;6708452;88;20568;-75
2022/09/18 07:31:13;;;;;;;1999.90;999.90;;;11.70;99.90;;;;;;6707698;88;20806;-74
2022/09/18 07:41:13;;;;;;;1999.90;999.90;;;11.70;99.90;;;;;;6714904;88;20245;-75
2022/09/18 07:51:14;;;;;;;1999.90;999.90;;;11.50;99.90;;;;;;6716562;88;20193;-76
2022/09/18 08:01:15;;;;;;;1999.90;999.90;;;11.80;99.90;;;;;;6722667;88;20396;-76
2022/09/18 08:11:15;;;;;;;1999.90;999.90;;;12.10;99.90;;;;;;6726088;88;20687;-75
2022/09/18 08:21:17;;;;;;;1999.90;999.90;;;12.20;99.90;;;;;;6735287;88;21153;-76
2022/09/18 08:31:17;;;;;;;1999.90;999.90;;;12.20;99.90;;;;;;6734980;87;20774;-75
2022/09/18 08:41:37;;;;;;;1999.90;999.90;;;12.40;99.90;;;;;;6731616;88;20250;-75
2022/09/18 08:51:51;;;;;;;1999.90;999.90;;;12.90;99.90;;;;;;6732743;88;20361;-76
2022/09/18 09:02:07;;;;;;;1999.90;999.90;;;13.20;99.90;;;;;;6746037;87;20497;-75
2022/09/18 09:12:41;;;;;;;1999.90;999.90;;;13.20;99.90;;;;;;6752370;87;20164;-77
2022/09/18 09:22:58;;;;;;;1999.90;999.90;;;13.50;99.90;;;;;;6746198;88;20689;-77
2022/09/18 09:33:26;;;;;;;1999.90;999.90;;;13.60;99.90;;;;;;6743265;87;20731;-76
2022/09/18 09:43:37;;;;;;;1999.90;999.90;;;13.90;99.90;;;;;;6744451;87;20221;-75
2022/09/18 09:53:38;;;;;;;1999.90;999.90;;;13.60;99.90;;;;;;6755768;87;20188;-75
2022/09/18 10:03:57;;;;;;;1999.90;999.90;;;13.20;99.90;;;;;;6706299;77;20233;-78
2022/09/18 10:14:03;;;;;;;1999.90;999.90;;;13.30;99.90;;;;;;6748106;87;20672;-78
2022/09/18 10:24:16;;;;;;;1999.90;999.90;;;13.30;99.90;;;;;;6766119;87;20335;-78
2022/09/18 10:34:33;;;;;;;1999.90;999.90;;;13.20;99.90;;;;;;6764406;87;20179;-78
2022/09/18 10:44:36;;;;;;;1999.90;999.90;;;13.30;99.90;;;;;;6767448;87;20306;-78
2022/09/18 10:54:36;;;;;;;1999.90;999.90;;;13.10;99.90;;;;;;6781606;87;20196;-78
2022/09/18 11:04:37;;;;;;;1999.90;999.90;;;13.10;99.90;;;;;;6766377;87;20911;-77
2022/09/18 11:14:45;;;;;;;1999.90;999.90;;;13.20;99.90;;;;;;6763568;87;20192;-78
2022/09/18 11:24:46;;;;;;;1999.90;999.90;;;13.20;99.90;;;;;;6769154;87;20231;-79
2022/09/18 11:34:52;;;;;;;1999.90;999.90;;;13.20;99.90;;;;;;6772976;87;20613;-78
2022/09/18 11:45:05;;;;;;;1999.90;999.90;;;13.20;99.90;;;;;;6772342;87;20265;-79
2022/09/18 11:55:37;;;;;;;1999.90;999.90;;;13.00;99.90;;;;;;6771213;87;20273;-78
2022/09/18 12:05:37;;;;;;;1999.90;999.90;;;13.20;99.90;;;;;;6772136;87;20777;-77
2022/09/18 12:15:41;;;;;;;1999.90;999.90;;;13.20;99.90;;;;;;6772432;87;20237;-79
2022/09/18 12:26:23;;;;;;;1999.90;999.90;;;13.10;99.90;;;;;;6768864;87;20257;-79
2022/09/18 12:36:41;;;;;;;1999.90;999.90;;;12.70;99.90;;;;;;6774033;87;20277;-79
2022/09/18 12:46:50;;;;;;;1999.90;999.90;;;12.70;99.90;;;;;;6773569;87;20770;-78
2022/09/18 12:57:20;;;;;;;1999.90;999.90;;;13.20;99.90;;;;;;6774343;87;20360;-80
2022/09/18 13:07:46;;;;;;;1999.90;999.90;;;13.50;99.90;;;;;;6775302;87;20719;-79
2022/09/18 13:17:53;;;;;;;1999.90;999.90;;;13.40;99.90;;;;;;6772947;87;20221;-78
2022/09/18 13:27:55;;;;;;;1999.90;999.90;;;13.30;99.90;;;;;;6771840;87;20933;-78
2022/09/18 13:38:07;;;;;;;1999.90;999.90;;;13.20;99.90;;;;;;6776822;87;20200;-79
2022/09/18 13:48:11;;;;;;;1999.90;999.90;;;13.30;99.90;;;;;;6771270;87;20318;-78
2022/09/18 13:58:31;;;;;;;1999.90;999.90;;;13.30;99.90;;;;;;6768235;87;20231;-80
2022/09/18 14:08:35;;;;;;;1999.90;999.90;;;13.40;99.90;;;;;;6756222;87;20622;-78
2022/09/18 14:18:48;;;;;;;1999.90;999.90;;;13.40;99.90;;;;;;6757374;87;20238;-79
2022/09/18 14:28:49;;;;;;;1999.90;999.90;;;13.10;99.90;;;;;;6753653;87;20272;-79
2022/09/18 14:38:50;;;;;;;1999.90;999.90;;;12.60;99.90;;;;;;6761202;87;20251;-79
2022/09/18 14:48:51;;;;;;;1999.90;999.90;;;12.10;99.90;;;;;;6754480;87;20263;-78
2022/09/18 14:58:52;;;;;;;1999.90;999.90;;;11.90;99.90;;;;;;6782171;87;20248;-77
2022/09/18 15:08:55;;;;;;;1999.90;999.90;;;11.70;99.90;;;;;;6786787;87;20701;-78
2022/09/18 15:18:57;;;;;;;1999.90;999.90;;;11.40;99.90;;;;;;6784928;87;20577;-78
2022/09/18 15:29:01;;;;;;;1999.90;999.90;;;11.20;99.90;;;;;;6783349;87;20196;-78
2022/09/18 15:39:04;;;;;;;1999.90;999.90;;;11.20;99.90;;;;;;6782914;87;20176;-78
2022/09/18 15:49:28;;;;;;;1999.90;999.90;;;11.20;99.90;;;;;;6779878;87;20285;-78
2022/09/18 15:59:33;;;;;;;1999.90;999.90;;;11.20;99.90;;;;;;6776135;87;20183;-78
2022/09/18 16:09:45;;;;;;;1999.90;999.90;;;11.20;99.90;;;;;;6770261;87;20378;-78
2022/09/18 16:19:46;;;;;;;1999.90;999.90;;;11.30;99.90;;;;;;6774210;87;20188;-77
2022/09/18 16:29:46;;;;;;;1999.90;999.90;;;11.30;99.90;;;;;;6773502;87;20208;-77
2022/09/18 16:39:47;;;;;;;1999.90;999.90;;;11.40;99.90;;;;;;6773447;87;20196;-77
2022/09/18 16:49:48;;;;;;;1999.90;999.90;;;11.40;99.90;;;;;;6768562;87;20278;-78
2022/09/18 16:59:49;;;;;;;1999.90;999.90;;;11.30;99.90;;;;;;6766286;87;20588;-76
2022/09/18 17:09:50;;;;;;;1999.90;999.90;;;11.30;99.90;;;;;;6768848;87;20197;-76
2022/09/18 17:19:51;;;;;;;1999.90;999.90;;;10.60;99.90;;;;;;6765345;87;20204;-75
2022/09/18 17:29:52;;;;;;;1999.90;999.90;;;10.40;99.90;;;;;;6761694;87;20236;-76
2022/09/18 17:39:52;;;;;;;1999.90;999.90;;;10.40;99.90;;;;;;6767116;87;20678;-76
2022/09/18 17:49:53;;;;;;;1999.90;999.90;;;10.30;99.90;;;;;;6759105;87;20609;-77
2022/09/18 17:59:53;;;;;;;1999.90;999.90;;;10.40;99.90;;;;;;6761764;87;20216;-77
2022/09/18 18:09:54;;;;;;;1999.90;999.90;;;10.40;99.90;;;;;;6766735;87;20397;-77
2022/09/18 18:19:54;;;;;;;1999.90;999.90;;;10.50;99.90;;;;;;6760471;87;20193;-75
2022/09/18 18:29:55;;;;;;;1999.90;999.90;;;10.20;99.90;;;;;;6767410;87;20205;-78
2022/09/18 18:39:55;;;;;;;1999.90;999.90;;;9.90;99.90;;;;;;6766825;87;20299;-78
2022/09/18 18:49:56;;;;;;;1999.90;999.90;;;9.70;99.90;;;;;;6766360;87;20300;-78
2022/09/18 18:59:57;;;;;;;1999.90;999.90;;;9.70;99.90;;;;;;6780533;87;20192;-77
2022/09/18 19:09:57;;;;;;;1999.90;999.90;;;9.60;99.90;;;;;;6771542;87;20184;-78
2022/09/18 19:19:58;;;;;;;1999.90;999.90;;;9.60;99.90;;;;;;6766700;87;20203;-78
2022/09/18 19:29:58;;;;;;;1999.90;999.90;;;9.60;99.90;;;;;;6762326;87;20304;-77
2022/09/18 19:39:59;;;;;;;1999.90;999.90;;;9.60;99.90;;;;;;6766020;87;21061;-77
2022/09/18 19:50:01;;;;;;;1999.90;999.90;;;9.50;99.90;;;;;;6761106;87;20168;-77
2022/09/18 20:00:04;;;;;;;1999.90;999.90;;;9.30;99.90;;;;;;6766417;87;20734;-78
2022/09/18 20:10:06;;;;;;;1999.90;999.90;;;9.40;99.90;;;;;;6765102;87;20223;-78
2022/09/18 20:20:07;;;;;;;1999.90;999.90;;;9.20;99.90;;;;;;6769894;87;20178;-77
2022/09/18 20:30:11;;;;;;;1999.90;999.90;;;9.10;99.90;;;;;;6763446;87;20196;-77
2022/09/18 20:40:12;;;;;;;1999.90;999.90;;;9.00;99.90;;;;;;6764464;87;20640;-76
2022/09/18 20:50:13;;;;;;;1999.90;999.90;;;8.90;99.90;;;;;;6764962;87;20233;-77
2022/09/18 21:00:15;;;;;;;1999.90;999.90;;;8.80;99.90;;;;;;6765270;87;20208;-77
2022/09/18 21:10:16;;;;;;;1999.90;999.90;;;8.90;99.90;;;;;;6763355;87;20213;-75
2022/09/18 21:20:17;;;;;;;1999.90;999.90;;;9.00;99.90;;;;;;6762600;87;20229;-76
2022/09/18 21:30:18;;;;;;;1999.90;999.90;;;8.90;99.90;;;;;;6764809;87;20188;-77
2022/09/18 21:40:18;;;;;;;1999.90;999.90;;;8.90;99.90;;;;;;6764161;87;20192;-76
2022/09/18 21:50:19;;;;;;;1999.90;999.90;;;8.90;99.90;;;;;;6763513;87;20209;-76
2022/09/18 22:00:19;;;;;;;1999.90;999.90;;;8.90;99.90;;;;;;6759807;87;20632;-75
2022/09/18 22:11:01;;;;;;;1999.90;999.90;;;8.90;99.90;;;;;;6749931;76;20208;-80
2022/09/18 22:21:03;;;;;;;1999.90;999.90;;;8.90;99.90;;;;;;6749759;88;20726;-81
2022/09/18 22:31:06;;;;;;;1999.90;999.90;;;8.90;99.90;;;;;;6751271;88;20180;-80
2022/09/18 22:41:08;;;;;;;1999.90;999.90;;;8.90;99.90;;;;;;6747969;88;20625;-80
2022/09/18 22:51:14;;;;;;;1999.90;999.90;;;8.90;99.90;;;;;;6746952;88;20463;-80
2022/09/18 23:01:30;;;;;;;1999.90;999.90;;;8.90;99.90;;;;;;6725633;88;20365;-81
2022/09/18 23:11:32;;;;;;;;;;;8.90;99.90;;;;;;6728191;88;20267;-81
2022/09/18 23:21:34;;;;;;;1999.90;999.90;;;9.00;99.90;;;;;;6728345;88;20076;-80
2022/09/18 23:31:38;;;;;;;1999.90;999.90;;;9.00;99.90;;;;;;6734195;88;20205;-79
2022/09/18 23:41:39;;;;;;;1999.90;999.90;;;9.00;99.90;;;;;;6730825;88;20218;-79
2022/09/18 23:51:42;;;;;;;1999.90;999.90;;;9.00;99.90;;;;;;6727810;88;20178;-79
